createdAt,value
2019-02-07T00:00:52.341Z,100428.02
2019-02-07T00:03:20.496Z,100422.03
2019-02-07T00:05:48.761Z,100422.95
2019-02-07T00:08:17.243Z,100413.67
2019-02-07T00:10:46.617Z,100410.73
2019-02-07T00:13:14.714Z,100408.69
2019-02-07T00:15:42.775Z,100408.69
2019-02-07T00:18:13.984Z,100408.80
2019-02-07T00:20:42.910Z,100419.13
2019-02-07T00:23:10.956Z,100412.03
2019-02-07T00:25:41.023Z,100409.20
2019-02-07T00:28:09.102Z,100411.89
2019-02-07T00:30:38.360Z,100414.11
2019-02-07T00:33:06.491Z,100404.72
2019-02-07T00:35:34.533Z,100398.81
2019-02-07T00:38:02.578Z,100392.68
2019-02-07T00:40:32.248Z,100386.88
2019-02-07T00:43:00.451Z,100390.14
2019-02-07T00:45:28.661Z,100382.94
2019-02-07T00:47:56.762Z,100387.98
2019-02-07T00:50:25.011Z,100384.05
2019-02-07T00:52:53.152Z,100383.94
2019-02-07T00:55:21.721Z,100382.17
2019-02-07T00:57:51.668Z,100373.25
2019-02-07T01:00:22.196Z,100372.07
2019-02-07T01:02:50.433Z,100372.15
2019-02-07T01:05:19.502Z,100370.39
2019-02-07T01:07:47.564Z,100359.24
2019-02-07T01:10:21.014Z,100358.88
2019-02-07T01:12:49.096Z,100348.92
2019-02-07T01:15:17.803Z,100337.41
2019-02-07T01:17:47.065Z,100326.27
2019-02-07T01:20:15.615Z,100313.94
2019-02-07T01:22:43.939Z,100316.98
2019-02-07T01:25:15.830Z,100315.06
2019-02-07T01:27:43.901Z,100308.72
2019-02-07T01:30:17.523Z,100313.98
2019-02-07T01:32:46.007Z,100306.43
2019-02-07T01:35:14.597Z,100302.96
2019-02-07T01:37:42.741Z,100292.86
2019-02-07T01:40:14.763Z,100296.09
2019-02-07T01:42:42.804Z,100295.48
2019-02-07T01:45:13.618Z,100289.96
2019-02-07T01:47:42.187Z,100290.43
2019-02-07T01:50:14.065Z,100286.27
2019-02-07T01:52:42.415Z,100291.90
2019-02-07T01:55:10.885Z,100291.90
2019-02-07T01:57:41.183Z,100285.56
2019-02-07T02:00:13.279Z,100288.25
2019-02-07T02:02:42.329Z,100295.98
2019-02-07T02:05:12.718Z,100297.27
2019-02-07T02:07:42.117Z,100295.16
2019-02-07T02:10:14.785Z,100283.91
2019-02-07T02:12:44.053Z,100282.52
2019-02-07T02:15:24.005Z,100279.00
2019-02-07T02:17:45.057Z,100266.75
2019-02-07T02:20:14.438Z,100257.15
2019-02-07T02:22:42.915Z,100264.31
2019-02-07T02:25:11.377Z,100267.64
2019-02-07T02:27:40.736Z,100273.52
2019-02-07T02:30:21.800Z,100265.06
2019-02-07T02:32:49.939Z,100258.22
2019-02-07T02:35:18.745Z,100263.77
2019-02-07T02:37:47.119Z,100256.64
2019-02-07T02:40:15.389Z,100259.03
2019-02-07T02:42:43.782Z,100247.77
2019-02-07T02:45:13.632Z,100247.77
2019-02-07T02:47:43.099Z,100239.57
2019-02-07T02:50:14.481Z,100229.03
2019-02-07T02:52:42.525Z,100228.48
2019-02-07T02:55:12.230Z,100230.13
2019-02-07T02:57:41.315Z,100229.20
2019-02-07T03:00:15.901Z,100227.55
2019-02-07T03:03:06.555Z,100231.14
2019-02-07T03:05:58.313Z,100221.16
2019-02-07T03:08:49.013Z,100215.83
2019-02-07T03:11:40.959Z,100202.30
2019-02-07T03:14:19.055Z,100207.20
2019-02-07T03:17:05.733Z,100205.09
2019-02-07T03:20:05.397Z,100202.98
2019-02-07T03:22:53.087Z,100203.91
2019-02-07T03:25:40.933Z,100208.50
2019-02-07T03:28:27.784Z,100209.78
2019-02-07T03:31:19.119Z,100208.50
2019-02-07T03:34:11.614Z,100207.92
2019-02-07T03:36:59.398Z,100196.59
2019-02-07T03:39:49.940Z,100192.61
2019-02-07T03:42:36.499Z,100196.84
2019-02-07T03:45:29.433Z,100192.14
2019-02-07T03:48:16.144Z,100194.01
2019-02-07T03:51:02.741Z,100178.72
2019-02-07T03:54:02.227Z,100173.09
2019-02-07T03:57:07.983Z,100165.47
2019-02-07T03:59:55.704Z,100170.27
2019-02-07T04:02:42.250Z,100158.14
2019-02-07T04:05:42.260Z,100163.52
2019-02-07T04:08:25.244Z,100157.08
2019-02-07T04:11:07.582Z,100155.89
2019-02-07T04:13:58.531Z,100154.38
2019-02-07T04:16:44.946Z,100151.15
2019-02-07T04:19:31.479Z,100151.75
2019-02-07T04:22:22.504Z,100149.64
2019-02-07T04:25:08.718Z,100156.91
2019-02-07T04:27:47.602Z,100155.04
2019-02-07T04:30:35.401Z,100151.56
2019-02-07T04:33:21.902Z,100151.45
2019-02-07T04:36:30.481Z,100146.42
2019-02-07T04:39:33.315Z,100144.23
2019-02-07T04:42:21.520Z,100146.29
2019-02-07T04:45:09.222Z,100149.06
2019-02-07T04:48:05.662Z,100146.13
2019-02-07T04:50:53.420Z,100149.99
2019-02-07T04:53:43.881Z,100141.08
2019-02-07T04:56:37.660Z,100145.87
2019-02-07T04:59:19.817Z,100141.30
2019-02-07T05:01:58.975Z,100148.45
2019-02-07T05:04:42.090Z,100145.87
2019-02-07T05:07:38.662Z,100134.63
2019-02-07T05:10:27.643Z,100117.40
2019-02-07T05:13:15.450Z,100126.20
2019-02-07T05:16:13.364Z,100131.83
2019-02-07T05:19:19.740Z,100132.57
2019-02-07T05:22:13.930Z,100139.73
2019-02-07T05:24:58.114Z,100140.20
2019-02-07T05:28:05.930Z,100135.50
2019-02-07T05:30:52.228Z,100140.55
2019-02-07T05:33:38.485Z,100149.00
2019-02-07T05:36:23.344Z,100139.50
2019-02-07T05:39:10.104Z,100136.22
2019-02-07T05:42:10.453Z,100137.86
2019-02-07T05:44:58.164Z,100126.36
2019-02-07T05:47:54.579Z,100126.83
2019-02-07T05:51:16.389Z,100123.31
2019-02-07T05:54:51.315Z,100118.52
2019-02-07T05:57:38.902Z,100091.34
2019-02-07T06:00:28.789Z,100078.45
2019-02-07T06:03:20.538Z,100068.83
2019-02-07T06:06:07.197Z,100073.06
2019-02-07T06:09:04.878Z,100081.78
2019-02-07T06:11:52.651Z,100078.97
2019-02-07T06:14:49.838Z,100081.23
2019-02-07T06:17:36.700Z,100074.45
2019-02-07T06:20:35.011Z,100063.80
2019-02-07T06:23:24.064Z,100067.83
2019-02-07T06:26:21.046Z,100057.78
2019-02-07T06:29:15.972Z,100056.30
2019-02-07T06:32:02.339Z,100057.41
2019-02-07T06:34:47.082Z,100059.67
2019-02-07T06:37:24.918Z,100065.84
2019-02-07T06:40:28.597Z,100069.38
2019-02-07T06:43:31.415Z,100069.52
2019-02-07T06:46:09.199Z,100069.20
2019-02-07T06:49:00.740Z,100087.81
2019-02-07T06:51:51.639Z,100083.12
2019-02-07T06:54:45.179Z,100074.22
2019-02-07T06:57:37.866Z,100051.66
2019-02-07T07:00:37.598Z,100049.53
2019-02-07T07:03:28.675Z,100061.05
2019-02-07T07:06:22.054Z,100056.36
2019-02-07T07:09:19.317Z,100052.61
2019-02-07T07:12:04.272Z,100063.06
2019-02-07T07:14:39.964Z,100054.38
2019-02-07T07:17:30.209Z,100057.32
2019-02-07T07:20:12.699Z,100053.78
2019-02-07T07:22:51.187Z,100058.23
2019-02-07T07:25:53.942Z,100048.14
2019-02-07T07:28:50.600Z,100042.97
2019-02-07T07:31:38.313Z,100041.20
2019-02-07T07:34:34.350Z,100032.63
2019-02-07T07:37:20.701Z,100026.16
2019-02-07T07:40:08.390Z,100027.45
2019-02-07T07:42:58.693Z,100019.43
2019-02-07T07:45:47.076Z,100016.72
2019-02-07T07:48:37.324Z,100008.52
2019-02-07T07:51:23.830Z,100016.50
2019-02-07T07:54:10.024Z,100006.71
2019-02-07T07:57:03.907Z,100013.30
2019-02-07T07:59:52.530Z,100010.12
2019-02-07T08:02:55.576Z,100010.72
2019-02-07T08:05:46.622Z,100009.51
2019-02-07T08:08:43.520Z,100005.75
2019-02-07T08:11:26.886Z,100004.45
2019-02-07T08:14:15.022Z,99998.91
2019-02-07T08:16:54.719Z,99994.77
2019-02-07T08:19:42.416Z,100005.11
2019-02-07T08:22:39.077Z,99994.75
2019-02-07T08:25:24.651Z,99981.41
2019-02-07T08:28:15.112Z,99985.41
2019-02-07T08:31:21.161Z,99985.96
2019-02-07T08:34:11.221Z,99987.84
2019-02-07T08:36:57.386Z,99982.88
2019-02-07T08:40:00.678Z,99980.05
2019-02-07T08:42:51.067Z,99972.16
2019-02-07T08:45:45.180Z,99972.16
2019-02-07T08:48:35.875Z,99966.27
2019-02-07T08:51:26.562Z,99973.30
2019-02-07T08:54:13.166Z,99965.16
2019-02-07T08:57:06.573Z,99981.25
2019-02-07T08:59:49.359Z,99970.52
2019-02-07T09:02:36.056Z,99969.06
2019-02-07T09:05:29.981Z,99975.52
2019-02-07T09:08:16.400Z,99970.41
2019-02-07T09:11:16.409Z,99956.59
2019-02-07T09:14:17.762Z,99957.66
2019-02-07T09:17:14.733Z,99963.86
2019-02-07T09:20:00.859Z,99962.67
2019-02-07T09:22:46.074Z,99956.73
2019-02-07T09:25:42.286Z,99956.97
2019-02-07T09:28:39.044Z,99951.86
2019-02-07T09:31:25.491Z,99952.56
2019-02-07T09:34:12.424Z,99950.31
2019-02-07T09:37:13.604Z,99952.56
2019-02-07T09:39:48.336Z,99962.56
2019-02-07T09:42:36.715Z,99961.27
2019-02-07T09:45:35.526Z,99957.75
2019-02-07T09:48:35.018Z,99956.45
2019-02-07T09:51:12.959Z,99957.63
2019-02-07T09:54:13.177Z,99943.94
2019-02-07T09:57:15.775Z,99948.55
2019-02-07T10:00:06.188Z,99945.67
2019-02-07T10:02:54.286Z,99937.42
2019-02-07T10:05:42.330Z,99952.02
2019-02-07T10:08:28.657Z,99958.60
2019-02-07T10:11:28.814Z,99959.86
2019-02-07T10:14:23.438Z,99960.54
2019-02-07T10:17:14.378Z,99965.00
2019-02-07T10:20:10.957Z,99966.70
2019-02-07T10:22:55.912Z,99959.02
2019-02-07T10:25:52.648Z,99961.34
2019-02-07T10:28:38.837Z,99967.58
2019-02-07T10:31:25.102Z,99968.59
2019-02-07T10:34:13.595Z,99966.23
2019-02-07T10:36:59.789Z,99971.77
2019-02-07T10:39:46.004Z,99958.98
2019-02-07T10:42:32.548Z,99962.55
2019-02-07T10:45:18.601Z,99957.02
2019-02-07T10:48:06.473Z,99953.60
2019-02-07T10:50:55.800Z,99946.77
2019-02-07T10:53:46.890Z,99948.89
2019-02-07T10:56:33.066Z,99953.94
2019-02-07T10:59:13.172Z,99947.31
2019-02-07T11:02:03.548Z,99943.99
2019-02-07T11:05:03.418Z,99941.34
2019-02-07T11:07:49.927Z,99953.34
2019-02-07T11:10:36.065Z,99956.70
2019-02-07T11:13:22.893Z,99948.24
2019-02-07T11:16:16.471Z,99954.53
2019-02-07T11:19:05.143Z,99961.08
2019-02-07T11:21:54.382Z,99972.71
2019-02-07T11:25:00.357Z,99980.78
2019-02-07T11:27:48.037Z,99972.94
2019-02-07T11:30:36.579Z,99957.55
2019-02-07T11:33:27.004Z,99970.95
2019-02-07T11:36:07.893Z,99967.95
2019-02-07T11:39:11.138Z,99949.00
2019-02-07T11:42:01.841Z,99945.19
2019-02-07T11:44:55.923Z,99946.08
2019-02-07T11:47:42.564Z,99946.69
2019-02-07T11:50:33.272Z,99942.34
2019-02-07T11:53:36.677Z,99947.28
2019-02-07T11:56:14.643Z,99954.05
2019-02-07T11:58:54.951Z,99946.29
2019-02-07T12:01:41.153Z,99948.67
2019-02-07T12:04:36.765Z,99943.55
2019-02-07T12:07:20.415Z,99940.05
2019-02-07T12:10:14.741Z,99937.48
2019-02-07T12:12:57.806Z,99929.45
2019-02-07T12:15:43.001Z,99927.26
2019-02-07T12:18:36.964Z,99920.04
2019-02-07T12:21:40.642Z,99911.88
2019-02-07T12:24:28.770Z,99908.89
2019-02-07T12:27:25.556Z,99909.64
2019-02-07T12:30:15.794Z,99902.77
2019-02-07T12:33:07.131Z,99902.37
2019-02-07T12:36:07.468Z,99906.20
2019-02-07T12:38:46.180Z,99904.03
2019-02-07T12:41:32.864Z,99903.47
2019-02-07T12:44:19.061Z,99902.60
2019-02-07T12:47:16.129Z,99893.87
2019-02-07T12:50:02.592Z,99893.13
2019-02-07T12:52:53.938Z,99889.16
2019-02-07T12:55:53.765Z,99892.83
2019-02-07T12:59:00.021Z,99896.80
2019-02-07T13:01:47.841Z,99886.73
2019-02-07T13:04:49.611Z,99896.36
2019-02-07T13:07:49.730Z,99889.72
2019-02-07T13:10:39.270Z,99882.59
2019-02-07T13:13:26.997Z,99888.64
2019-02-07T13:16:06.780Z,99880.69
2019-02-07T13:19:01.763Z,99875.84
2019-02-07T13:21:48.008Z,99873.59
2019-02-07T13:24:35.790Z,99881.09
2019-02-07T13:27:26.773Z,99887.16
2019-02-07T13:30:23.456Z,99882.92
2019-02-07T13:33:09.910Z,99886.70
2019-02-07T13:35:55.818Z,99885.73
2019-02-07T13:38:42.350Z,99886.22
2019-02-07T13:41:28.635Z,99883.12
2019-02-07T13:44:14.942Z,99877.91
2019-02-07T13:46:59.108Z,99879.73
2019-02-07T13:49:51.451Z,99878.91
2019-02-07T13:52:29.720Z,99876.17
2019-02-07T13:55:21.230Z,99884.81
2019-02-07T13:58:12.475Z,99886.25
2019-02-07T14:01:04.005Z,99891.99
2019-02-07T14:03:50.327Z,99899.03
2019-02-07T14:06:36.011Z,99910.94
2019-02-07T14:09:26.530Z,99921.55
2019-02-07T14:12:19.811Z,99927.58
2019-02-07T14:15:22.591Z,99930.68
2019-02-07T14:18:12.358Z,99938.52
2019-02-07T14:21:00.040Z,99939.81
2019-02-07T14:23:51.429Z,99946.66
2019-02-07T14:26:38.204Z,99958.08
2019-02-07T14:29:24.666Z,99957.92
2019-02-07T14:32:06.986Z,99955.27
2019-02-07T14:34:57.789Z,99960.81
2019-02-07T14:37:48.244Z,99946.09
2019-02-07T14:40:41.845Z,99938.77
2019-02-07T14:43:29.829Z,99947.56
2019-02-07T14:46:23.833Z,99959.63
2019-02-07T14:48:51.957Z,99960.45
2019-02-07T14:51:20.000Z,99962.08
2019-02-07T14:53:49.146Z,99965.63
2019-02-07T14:56:17.259Z,99970.84
2019-02-07T14:58:45.383Z,99969.91
2019-02-07T15:01:13.434Z,99957.19
2019-02-07T15:03:42.859Z,99960.45
2019-02-07T15:06:10.983Z,99966.00
2019-02-07T15:08:39.195Z,99974.31
2019-02-07T15:11:07.573Z,99964.36
2019-02-07T15:13:35.710Z,99972.52
2019-02-07T15:16:04.241Z,99970.23
2019-02-07T15:18:32.305Z,99973.82
2019-02-07T15:21:00.752Z,99973.66
2019-02-07T15:23:28.840Z,99980.88
2019-02-07T15:25:57.045Z,99990.50
2019-02-07T15:28:25.494Z,99984.30
2019-02-07T15:30:53.600Z,99978.30
2019-02-07T15:33:21.981Z,99977.16
2019-02-07T15:35:51.068Z,99977.03
2019-02-07T15:38:19.226Z,99988.62
2019-02-07T15:40:47.712Z,99984.38
2019-02-07T15:43:16.208Z,99979.16
2019-02-07T15:45:44.577Z,99981.61
2019-02-07T15:48:13.812Z,99985.06
2019-02-07T15:50:42.177Z,99984.09
2019-02-07T15:53:10.359Z,99978.87
2019-02-07T15:55:38.460Z,99973.98
2019-02-07T15:58:06.634Z,99975.61
2019-02-07T16:01:03.880Z,99979.69
2019-02-07T16:03:41.138Z,99992.58
2019-02-07T16:06:09.244Z,99999.91
2019-02-07T16:08:37.340Z,99999.42
2019-02-07T16:11:06.283Z,99995.52
2019-02-07T16:13:34.761Z,99987.84
2019-02-07T16:16:03.043Z,99992.90
2019-02-07T16:18:31.111Z,99992.58
2019-02-07T16:20:59.430Z,99997.14
2019-02-07T16:23:28.218Z,100002.98
2019-02-07T16:25:56.469Z,100006.89
2019-02-07T16:28:24.597Z,100008.20
2019-02-07T16:30:52.807Z,100010.32
2019-02-07T16:33:20.897Z,100009.99
2019-02-07T16:35:50.484Z,100016.52
2019-02-07T16:38:18.795Z,100029.56
2019-02-07T16:40:47.174Z,100021.90
2019-02-07T16:43:15.216Z,100022.23
2019-02-07T16:45:49.267Z,100027.77
2019-02-07T16:48:17.471Z,100027.45
2019-02-07T16:50:46.078Z,100024.67
2019-02-07T16:53:14.310Z,100033.48
2019-02-07T16:55:42.438Z,100032.94
2019-02-07T16:58:10.558Z,100031.42
2019-02-07T17:00:39.086Z,100027.47
2019-02-07T17:03:07.341Z,100034.31
2019-02-07T17:05:37.920Z,100033.45
2019-02-07T17:08:07.939Z,100044.17
2019-02-07T17:10:37.677Z,100041.22
2019-02-07T17:13:44.885Z,100047.03
2019-02-07T17:16:20.607Z,100050.91
2019-02-07T17:18:49.188Z,100051.34
2019-02-07T17:21:17.754Z,100051.02
2019-02-07T17:23:46.364Z,100054.59
2019-02-07T17:26:15.276Z,100050.02
2019-02-07T17:28:43.661Z,100054.42
2019-02-07T17:31:11.869Z,100060.73
2019-02-07T17:33:40.027Z,100068.70
2019-02-07T17:36:08.247Z,100079.78
2019-02-07T17:38:36.697Z,100074.39
2019-02-07T17:41:04.878Z,100071.42
2019-02-07T17:43:33.180Z,100083.31
2019-02-07T17:46:01.377Z,100082.34
2019-02-07T17:48:29.658Z,100087.06
2019-02-07T17:50:57.801Z,100097.16
2019-02-07T17:53:25.983Z,100103.20
2019-02-07T17:55:54.142Z,100114.11
2019-02-07T17:58:22.652Z,100119.63
2019-02-07T18:01:00.936Z,100120.72
2019-02-07T18:03:29.146Z,100130.48
2019-02-07T18:05:57.251Z,100137.16
2019-02-07T18:08:25.408Z,100143.02
2019-02-07T18:10:53.611Z,100154.20
2019-02-07T18:13:23.675Z,100164.78
2019-02-07T18:15:53.069Z,100174.66
2019-02-07T18:18:22.472Z,100180.50
2019-02-07T18:20:51.630Z,100183.27
2019-02-07T18:23:22.016Z,100193.35
2019-02-07T18:25:53.037Z,100189.86
2019-02-07T18:28:22.028Z,100201.86
2019-02-07T18:30:53.254Z,100201.83
2019-02-07T18:33:22.635Z,100191.45
2019-02-07T18:35:53.026Z,100185.36
2019-02-07T18:38:22.639Z,100193.81
2019-02-07T18:40:51.136Z,100190.46
2019-02-07T18:43:22.076Z,100202.81
2019-02-07T18:45:53.420Z,100198.72
2019-02-07T18:48:22.130Z,100193.30
2019-02-07T18:50:51.123Z,100192.29
2019-02-07T18:53:21.469Z,100189.28
2019-02-07T18:55:56.539Z,100191.81
2019-02-07T18:58:27.092Z,100199.10
2019-02-07T19:00:56.890Z,100192.66
2019-02-07T19:03:28.243Z,100196.50
2019-02-07T19:05:58.759Z,100201.66
2019-02-07T19:08:29.893Z,100199.95
2019-02-07T19:11:01.794Z,100206.86
2019-02-07T19:13:32.177Z,100198.19
2019-02-07T19:16:12.812Z,100203.65
2019-02-07T19:18:42.465Z,100206.54
2019-02-07T19:21:14.105Z,100212.30
2019-02-07T19:23:44.556Z,100213.52
2019-02-07T19:26:15.953Z,100216.06
2019-02-07T19:28:47.954Z,100214.34
2019-02-07T19:31:18.380Z,100216.52
2019-02-07T19:33:48.312Z,100219.89
2019-02-07T19:36:18.473Z,100218.64
2019-02-07T19:38:48.451Z,100217.27
2019-02-07T19:41:19.681Z,100220.14
2019-02-07T19:43:51.264Z,100230.46
2019-02-07T19:46:21.507Z,100233.34
2019-02-07T19:48:51.776Z,100228.34
2019-02-07T19:51:23.777Z,100229.34
2019-02-07T19:53:55.317Z,100221.45
2019-02-07T19:56:26.271Z,100223.14
2019-02-07T19:58:57.974Z,100230.88
2019-02-07T20:01:28.841Z,100232.43
2019-02-07T20:03:58.901Z,100229.77
2019-02-07T20:06:29.827Z,100236.85
2019-02-07T20:09:02.858Z,100236.79
2019-02-07T20:11:35.367Z,100237.75
2019-02-07T20:14:06.508Z,100240.59
2019-02-07T20:16:35.892Z,100243.95
2019-02-07T20:19:05.748Z,100243.37
2019-02-07T20:21:35.795Z,100250.62
2019-02-07T20:24:06.905Z,100255.47
2019-02-07T20:26:36.663Z,100253.94
2019-02-07T20:29:06.774Z,100262.34
2019-02-07T20:31:37.443Z,100261.39
2019-02-07T20:34:07.093Z,100257.29
2019-02-07T20:36:35.637Z,100266.97
2019-02-07T20:39:08.428Z,100260.13
2019-02-07T20:41:38.221Z,100255.41
2019-02-07T20:44:08.917Z,100257.66
2019-02-07T20:46:38.622Z,100262.86
2019-02-07T20:49:08.595Z,100264.30
2019-02-07T20:51:38.017Z,100263.48
2019-02-07T20:54:07.145Z,100268.67
2019-02-07T20:56:38.383Z,100282.83
2019-02-07T20:59:09.496Z,100281.39
2019-02-07T21:01:40.164Z,100284.20
2019-02-07T21:04:09.637Z,100287.17
2019-02-07T21:06:39.456Z,100281.15
2019-02-07T21:09:10.346Z,100287.03
2019-02-07T21:11:39.210Z,100293.87
2019-02-07T21:14:08.003Z,100296.33
2019-02-07T21:16:36.310Z,100307.20
2019-02-07T21:19:05.878Z,100317.12
2019-02-07T21:21:35.307Z,100318.07
2019-02-07T21:24:04.247Z,100315.00
2019-02-07T21:26:32.545Z,100315.00
2019-02-07T21:29:00.770Z,100321.83
2019-02-07T21:31:29.019Z,100324.44
2019-02-07T21:33:57.653Z,100322.31
2019-02-07T21:36:25.885Z,100331.88
2019-02-07T21:38:54.234Z,100332.63
2019-02-07T21:41:22.332Z,100331.81
2019-02-07T21:43:50.747Z,100339.70
2019-02-07T21:46:20.100Z,100340.53
2019-02-07T21:48:48.415Z,100337.93
2019-02-07T21:51:16.626Z,100352.94
2019-02-07T21:53:44.746Z,100354.58
2019-02-07T21:56:12.856Z,100355.75
2019-02-07T21:58:40.980Z,100363.41
2019-02-07T22:01:10.145Z,100355.51
2019-02-07T22:03:39.360Z,100358.66
2019-02-07T22:06:07.500Z,100360.64
2019-02-07T22:08:36.094Z,100360.89
2019-02-07T22:11:04.731Z,100367.94
2019-02-07T22:13:32.832Z,100372.55
2019-02-07T22:16:01.196Z,100380.90
2019-02-07T22:18:29.842Z,100381.48
2019-02-07T22:20:57.920Z,100381.21
2019-02-07T22:23:26.340Z,100379.30
2019-02-07T22:25:55.273Z,100377.41
2019-02-07T22:28:24.946Z,100384.26
2019-02-07T22:30:54.111Z,100389.19
2019-02-07T22:33:22.528Z,100386.34
2019-02-07T22:35:51.272Z,100390.59
2019-02-07T22:38:21.006Z,100385.59
2019-02-07T22:40:49.456Z,100382.86
2019-02-07T22:43:17.555Z,100380.16
2019-02-07T22:45:45.853Z,100376.59
2019-02-07T22:48:14.392Z,100374.68
2019-02-07T22:50:42.529Z,100380.45
2019-02-07T22:53:10.666Z,100387.64
2019-02-07T22:55:39.795Z,100378.88
2019-02-07T22:58:08.411Z,100379.57
2019-02-07T23:01:53.491Z,100379.46
2019-02-07T23:04:23.556Z,100383.23
2019-02-07T23:06:52.820Z,100384.39
2019-02-07T23:09:21.029Z,100386.37
2019-02-07T23:11:49.407Z,100392.29
2019-02-07T23:14:17.845Z,100392.50
2019-02-07T23:16:45.985Z,100398.38
2019-02-07T23:19:14.280Z,100393.07
2019-02-07T23:21:42.960Z,100397.66
2019-02-07T23:24:11.170Z,100399.16
2019-02-07T23:26:40.327Z,100400.33
2019-02-07T23:29:08.843Z,100396.31
2019-02-07T23:31:37.252Z,100402.06
2019-02-07T23:34:05.929Z,100398.39
2019-02-07T23:36:34.762Z,100393.05
2019-02-07T23:39:06.996Z,100393.73
2019-02-07T23:41:35.117Z,100394.89
2019-02-07T23:44:05.109Z,100402.59
2019-02-07T23:46:33.167Z,100403.75
2019-02-07T23:49:01.288Z,100403.75
2019-02-07T23:51:29.364Z,100399.37
2019-02-07T23:53:58.581Z,100399.23
2019-02-07T23:56:26.658Z,100400.05
2019-02-07T23:58:54.775Z,100404.88
